sensor_id;sensor_type;location;lat;lon;timestamp;temperature;humidity
25937;DHT22;13733;51.178;4.450;2023-04-25T00:01:29;10.10;99.90
25937;DHT22;13733;51.178;4.450;2023-04-25T00:03:54;10.10;99.90
25937;DHT22;13733;51.178;4.450;2023-04-25T00:06:20;10.00;99.90
25937;DHT22;13733;51.178;4.450;2023-04-25T00:08:46;10.00;99.90
25937;DHT22;13733;51.178;4.450;2023-04-25T00:11:12;10.00;99.90
25937;DHT22;13733;51.178;4.450;2023-04-25T00:13:38;10.00;99.90
25937;DHT22;13733;51.178;4.450;2023-04-25T00:16:07;10.00;99.90
25937;DHT22;13733;51.178;4.450;2023-04-25T00:18:33;10.00;99.90
25937;DHT22;13733;51.178;4.450;2023-04-25T00:20:59;10.10;99.90
25937;DHT22;13733;51.178;4.450;2023-04-25T00:23:24;10.00;99.90
25937;DHT22;13733;51.178;4.450;2023-04-25T00:25:51;10.00;99.90
25937;DHT22;13733;51.178;4.450;2023-04-25T00:28:16;10.20;99.90
25937;DHT22;13733;51.178;4.450;2023-04-25T00:30:43;10.30;99.90
25937;DHT22;13733;51.178;4.450;2023-04-25T00:33:09;10.30;99.90
25937;DHT22;13733;51.178;4.450;2023-04-25T00:35:35;10.30;99.90
25937;DHT22;13733;51.178;4.450;2023-04-25T00:38:02;10.20;99.90
25937;DHT22;13733;51.178;4.450;2023-04-25T00:40:28;10.20;99.90
25937;DHT22;13733;51.178;4.450;2023-04-25T00:42:54;10.20;99.90
25937;DHT22;13733;51.178;4.450;2023-04-25T00:45:20;10.20;99.90
25937;DHT22;13733;51.178;4.450;2023-04-25T00:47:46;10.20;99.90
25937;DHT22;13733;51.178;4.450;2023-04-25T00:50:13;10.20;99.90
25937;DHT22;13733;51.178;4.450;2023-04-25T00:52:41;10.20;99.90
25937;DHT22;13733;51.178;4.450;2023-04-25T00:55:10;10.20;99.90
25937;DHT22;13733;51.178;4.450;2023-04-25T00:57:36;10.20;99.90
25937;DHT22;13733;51.178;4.450;2023-04-25T01:00:04;10.20;99.90
25937;DHT22;13733;51.178;4.450;2023-04-25T01:02:32;10.10;99.90
25937;DHT22;13733;51.178;4.450;2023-04-25T01:04:58;10.10;99.90
25937;DHT22;13733;51.178;4.450;2023-04-25T01:07:25;10.10;99.90
25937;DHT22;13733;51.178;4.450;2023-04-25T01:09:54;10.20;99.90
25937;DHT22;13733;51.178;4.450;2023-04-25T01:12:20;10.30;99.90
25937;DHT22;13733;51.178;4.450;2023-04-25T01:14:46;10.30;99.90
25937;DHT22;13733;51.178;4.450;2023-04-25T01:17:12;10.30;99.90
25937;DHT22;13733;51.178;4.450;2023-04-25T01:19:38;10.30;99.90
25937;DHT22;13733;51.178;4.450;2023-04-25T01:22:04;10.30;99.90
25937;DHT22;13733;51.178;4.450;2023-04-25T01:24:31;10.20;99.90
25937;DHT22;13733;51.178;4.450;2023-04-25T01:26:58;10.10;99.90
25937;DHT22;13733;51.178;4.450;2023-04-25T01:29:27;10.20;99.90
25937;DHT22;13733;51.178;4.450;2023-04-25T01:31:54;10.20;99.90
25937;DHT22;13733;51.178;4.450;2023-04-25T01:34:20;10.20;99.90
25937;DHT22;13733;51.178;4.450;2023-04-25T01:36:49;10.20;99.90
25937;DHT22;13733;51.178;4.450;2023-04-25T01:39:15;10.20;99.90
25937;DHT22;13733;51.178;4.450;2023-04-25T01:41:42;10.10;99.90
25937;DHT22;13733;51.178;4.450;2023-04-25T01:44:08;10.10;99.90
25937;DHT22;13733;51.178;4.450;2023-04-25T01:46:35;10.10;99.90
25937;DHT22;13733;51.178;4.450;2023-04-25T01:49:01;10.30;99.90
25937;DHT22;13733;51.178;4.450;2023-04-25T01:51:27;10.20;99.90
25937;DHT22;13733;51.178;4.450;2023-04-25T01:53:54;10.20;99.90
25937;DHT22;13733;51.178;4.450;2023-04-25T01:56:21;10.20;99.90
25937;DHT22;13733;51.178;4.450;2023-04-25T01:58:47;10.20;99.90
25937;DHT22;13733;51.178;4.450;2023-04-25T02:01:30;10.20;99.90
25937;DHT22;13733;51.178;4.450;2023-04-25T02:04:14;10.20;99.90
25937;DHT22;13733;51.178;4.450;2023-04-25T02:06:40;10.10;99.90
25937;DHT22;13733;51.178;4.450;2023-04-25T02:09:06;10.10;99.90
25937;DHT22;13733;51.178;4.450;2023-04-25T02:11:32;10.00;99.90
25937;DHT22;13733;51.178;4.450;2023-04-25T02:14:16;10.00;99.90
25937;DHT22;13733;51.178;4.450;2023-04-25T02:17:08;10.00;99.90
25937;DHT22;13733;51.178;4.450;2023-04-25T02:19:34;10.20;99.90
25937;DHT22;13733;51.178;4.450;2023-04-25T02:22:00;10.20;99.90
25937;DHT22;13733;51.178;4.450;2023-04-25T02:24:26;10.10;99.90
25937;DHT22;13733;51.178;4.450;2023-04-25T02:26:55;10.00;99.90
25937;DHT22;13733;51.178;4.450;2023-04-25T02:29:23;9.90;99.90
25937;DHT22;13733;51.178;4.450;2023-04-25T02:31:49;9.90;99.90
25937;DHT22;13733;51.178;4.450;2023-04-25T02:34:16;9.80;99.90
25937;DHT22;13733;51.178;4.450;2023-04-25T02:36:42;9.70;99.90
25937;DHT22;13733;51.178;4.450;2023-04-25T02:39:08;9.50;99.90
25937;DHT22;13733;51.178;4.450;2023-04-25T02:41:33;9.40;99.90
25937;DHT22;13733;51.178;4.450;2023-04-25T02:43:59;9.20;99.90
25937;DHT22;13733;51.178;4.450;2023-04-25T02:46:25;9.10;99.90
25937;DHT22;13733;51.178;4.450;2023-04-25T02:48:51;9.00;99.90
25937;DHT22;13733;51.178;4.450;2023-04-25T02:51:16;9.00;99.90
25937;DHT22;13733;51.178;4.450;2023-04-25T02:53:43;9.00;99.90
25937;DHT22;13733;51.178;4.450;2023-04-25T02:56:08;9.00;99.90
25937;DHT22;13733;51.178;4.450;2023-04-25T02:58:34;9.10;99.90
25937;DHT22;13733;51.178;4.450;2023-04-25T03:01:00;9.00;99.90
25937;DHT22;13733;51.178;4.450;2023-04-25T03:03:26;9.10;99.90
25937;DHT22;13733;51.178;4.450;2023-04-25T03:05:52;9.20;99.90
25937;DHT22;13733;51.178;4.450;2023-04-25T03:08:23;9.20;99.90
25937;DHT22;13733;51.178;4.450;2023-04-25T03:10:49;9.20;99.90
25937;DHT22;13733;51.178;4.450;2023-04-25T03:13:16;9.20;99.90
25937;DHT22;13733;51.178;4.450;2023-04-25T03:15:43;9.30;99.90
25937;DHT22;13733;51.178;4.450;2023-04-25T03:18:09;9.20;99.90
25937;DHT22;13733;51.178;4.450;2023-04-25T03:20:35;9.20;99.90
25937;DHT22;13733;51.178;4.450;2023-04-25T03:23:02;9.10;99.90
25937;DHT22;13733;51.178;4.450;2023-04-25T03:25:29;9.10;99.90
25937;DHT22;13733;51.178;4.450;2023-04-25T03:27:55;9.10;99.90
25937;DHT22;13733;51.178;4.450;2023-04-25T03:30:21;9.10;99.90
25937;DHT22;13733;51.178;4.450;2023-04-25T03:32:47;9.10;99.90
25937;DHT22;13733;51.178;4.450;2023-04-25T03:35:16;9.20;99.90
25937;DHT22;13733;51.178;4.450;2023-04-25T03:37:42;9.20;99.90
25937;DHT22;13733;51.178;4.450;2023-04-25T03:40:13;9.30;99.90
25937;DHT22;13733;51.178;4.450;2023-04-25T03:43:06;9.30;99.90
25937;DHT22;13733;51.178;4.450;2023-04-25T03:45:33;9.30;99.90
25937;DHT22;13733;51.178;4.450;2023-04-25T03:47:58;9.30;99.90
25937;DHT22;13733;51.178;4.450;2023-04-25T03:50:26;9.30;99.90
25937;DHT22;13733;51.178;4.450;2023-04-25T03:52:52;9.30;99.90
25937;DHT22;13733;51.178;4.450;2023-04-25T03:55:18;9.30;99.90
25937;DHT22;13733;51.178;4.450;2023-04-25T03:57:44;9.30;99.90
25937;DHT22;13733;51.178;4.450;2023-04-25T04:00:11;9.40;99.90
25937;DHT22;13733;51.178;4.450;2023-04-25T04:02:40;9.40;99.90
25937;DHT22;13733;51.178;4.450;2023-04-25T04:05:07;9.40;99.90
25937;DHT22;13733;51.178;4.450;2023-04-25T04:07:36;9.30;99.90
25937;DHT22;13733;51.178;4.450;2023-04-25T04:10:10;9.30;99.90
25937;DHT22;13733;51.178;4.450;2023-04-25T04:12:38;9.30;99.90
25937;DHT22;13733;51.178;4.450;2023-04-25T04:15:05;9.30;99.90
25937;DHT22;13733;51.178;4.450;2023-04-25T04:17:32;9.20;99.90
25937;DHT22;13733;51.178;4.450;2023-04-25T04:19:58;9.10;99.90
25937;DHT22;13733;51.178;4.450;2023-04-25T04:22:25;9.00;99.90
25937;DHT22;13733;51.178;4.450;2023-04-25T04:24:53;9.00;99.90
25937;DHT22;13733;51.178;4.450;2023-04-25T04:27:42;8.90;99.90
25937;DHT22;13733;51.178;4.450;2023-04-25T04:30:36;8.80;99.90
25937;DHT22;13733;51.178;4.450;2023-04-25T04:33:06;8.70;99.90
25937;DHT22;13733;51.178;4.450;2023-04-25T04:35:33;8.70;99.90
25937;DHT22;13733;51.178;4.450;2023-04-25T04:37:59;8.80;99.90
25937;DHT22;13733;51.178;4.450;2023-04-25T04:40:29;8.90;99.90
25937;DHT22;13733;51.178;4.450;2023-04-25T04:43:25;8.80;99.90
25937;DHT22;13733;51.178;4.450;2023-04-25T04:46:17;8.80;99.90
25937;DHT22;13733;51.178;4.450;2023-04-25T04:49:10;8.90;99.90
25937;DHT22;13733;51.178;4.450;2023-04-25T04:51:47;9.00;99.90
25937;DHT22;13733;51.178;4.450;2023-04-25T04:54:33;9.00;99.90
25937;DHT22;13733;51.178;4.450;2023-04-25T04:57:23;9.00;99.90
25937;DHT22;13733;51.178;4.450;2023-04-25T05:00:08;9.00;99.90
25937;DHT22;13733;51.178;4.450;2023-04-25T05:03:04;9.00;99.90
25937;DHT22;13733;51.178;4.450;2023-04-25T05:05:49;9.00;99.90
25937;DHT22;13733;51.178;4.450;2023-04-25T05:08:33;9.10;99.90
25937;DHT22;13733;51.178;4.450;2023-04-25T05:11:12;9.10;99.90
25937;DHT22;13733;51.178;4.450;2023-04-25T05:13:53;9.10;99.90
25937;DHT22;13733;51.178;4.450;2023-04-25T05:16:45;9.30;99.90
25937;DHT22;13733;51.178;4.450;2023-04-25T05:19:40;9.30;99.90
25937;DHT22;13733;51.178;4.450;2023-04-25T05:22:29;9.20;99.90
25937;DHT22;13733;51.178;4.450;2023-04-25T05:25:19;9.30;99.90
25937;DHT22;13733;51.178;4.450;2023-04-25T05:28:13;9.30;99.90
25937;DHT22;13733;51.178;4.450;2023-04-25T05:30:39;9.30;99.90
25937;DHT22;13733;51.178;4.450;2023-04-25T05:33:25;9.30;99.90
25937;DHT22;13733;51.178;4.450;2023-04-25T05:35:52;9.40;99.90
25937;DHT22;13733;51.178;4.450;2023-04-25T05:38:18;9.50;99.90
25937;DHT22;13733;51.178;4.450;2023-04-25T05:41:02;9.60;99.90
25937;DHT22;13733;51.178;4.450;2023-04-25T05:43:44;9.70;99.90
25937;DHT22;13733;51.178;4.450;2023-04-25T05:46:24;9.80;99.90
25937;DHT22;13733;51.178;4.450;2023-04-25T05:49:03;9.60;99.90
25937;DHT22;13733;51.178;4.450;2023-04-25T05:51:37;9.70;99.90
25937;DHT22;13733;51.178;4.450;2023-04-25T05:54:25;9.80;99.90
25937;DHT22;13733;51.178;4.450;2023-04-25T05:56:53;9.80;99.90
25937;DHT22;13733;51.178;4.450;2023-04-25T05:59:19;9.90;99.90
25937;DHT22;13733;51.178;4.450;2023-04-25T06:01:46;9.90;99.90
25937;DHT22;13733;51.178;4.450;2023-04-25T06:04:12;9.80;99.90
25937;DHT22;13733;51.178;4.450;2023-04-25T06:06:38;9.80;99.90
25937;DHT22;13733;51.178;4.450;2023-04-25T06:09:04;9.90;99.90
25937;DHT22;13733;51.178;4.450;2023-04-25T06:11:31;9.90;99.90
25937;DHT22;13733;51.178;4.450;2023-04-25T06:13:56;10.00;99.90
25937;DHT22;13733;51.178;4.450;2023-04-25T06:16:23;10.10;99.90
25937;DHT22;13733;51.178;4.450;2023-04-25T06:18:51;10.10;99.90
25937;DHT22;13733;51.178;4.450;2023-04-25T06:21:17;10.20;99.90
25937;DHT22;13733;51.178;4.450;2023-04-25T06:23:42;10.40;99.90
25937;DHT22;13733;51.178;4.450;2023-04-25T06:26:11;10.50;99.90
25937;DHT22;13733;51.178;4.450;2023-04-25T06:28:40;10.40;99.90
25937;DHT22;13733;51.178;4.450;2023-04-25T06:31:06;10.30;99.90
25937;DHT22;13733;51.178;4.450;2023-04-25T06:33:32;10.40;99.90
25937;DHT22;13733;51.178;4.450;2023-04-25T06:35:58;10.20;99.90
25937;DHT22;13733;51.178;4.450;2023-04-25T06:38:26;9.90;99.90
25937;DHT22;13733;51.178;4.450;2023-04-25T06:40:54;9.80;99.90
25937;DHT22;13733;51.178;4.450;2023-04-25T06:43:21;9.90;99.90
25937;DHT22;13733;51.178;4.450;2023-04-25T06:46:04;9.90;99.90
25937;DHT22;13733;51.178;4.450;2023-04-25T06:48:32;10.00;99.90
25937;DHT22;13733;51.178;4.450;2023-04-25T06:50:58;10.00;99.90
25937;DHT22;13733;51.178;4.450;2023-04-25T06:53:25;10.10;99.90
25937;DHT22;13733;51.178;4.450;2023-04-25T06:55:57;10.00;99.90
25937;DHT22;13733;51.178;4.450;2023-04-25T06:58:25;10.10;99.90
25937;DHT22;13733;51.178;4.450;2023-04-25T07:00:58;10.10;99.90
25937;DHT22;13733;51.178;4.450;2023-04-25T07:03:25;10.10;99.90
25937;DHT22;13733;51.178;4.450;2023-04-25T07:05:56;10.00;99.90
25937;DHT22;13733;51.178;4.450;2023-04-25T07:08:23;9.90;99.90
25937;DHT22;13733;51.178;4.450;2023-04-25T07:10:49;9.90;99.90
25937;DHT22;13733;51.178;4.450;2023-04-25T07:13:14;10.00;99.90
25937;DHT22;13733;51.178;4.450;2023-04-25T07:15:41;10.10;99.90
25937;DHT22;13733;51.178;4.450;2023-04-25T07:18:08;10.10;99.90
25937;DHT22;13733;51.178;4.450;2023-04-25T07:20:33;10.20;99.90
25937;DHT22;13733;51.178;4.450;2023-04-25T07:23:01;10.30;99.90
25937;DHT22;13733;51.178;4.450;2023-04-25T07:25:27;10.30;99.90
25937;DHT22;13733;51.178;4.450;2023-04-25T07:27:53;10.20;99.90
25937;DHT22;13733;51.178;4.450;2023-04-25T07:30:20;10.30;99.90
25937;DHT22;13733;51.178;4.450;2023-04-25T07:32:46;10.40;99.90
25937;DHT22;13733;51.178;4.450;2023-04-25T07:35:12;10.60;99.90
25937;DHT22;13733;51.178;4.450;2023-04-25T07:37:38;10.70;99.90
25937;DHT22;13733;51.178;4.450;2023-04-25T07:40:10;10.80;99.90
25937;DHT22;13733;51.178;4.450;2023-04-25T07:42:42;10.80;99.90
25937;DHT22;13733;51.178;4.450;2023-04-25T07:45:09;10.70;99.90
25937;DHT22;13733;51.178;4.450;2023-04-25T07:47:35;10.90;99.90
25937;DHT22;13733;51.178;4.450;2023-04-25T07:50:02;11.00;99.90
25937;DHT22;13733;51.178;4.450;2023-04-25T07:52:30;11.00;99.90
25937;DHT22;13733;51.178;4.450;2023-04-25T07:55:03;10.90;99.90
25937;DHT22;13733;51.178;4.450;2023-04-25T07:57:40;11.00;99.90
25937;DHT22;13733;51.178;4.450;2023-04-25T08:00:07;11.30;99.90
25937;DHT22;13733;51.178;4.450;2023-04-25T08:02:39;11.60;99.90
25937;DHT22;13733;51.178;4.450;2023-04-25T08:05:08;11.90;99.90
25937;DHT22;13733;51.178;4.450;2023-04-25T08:07:38;12.20;99.90
25937;DHT22;13733;51.178;4.450;2023-04-25T08:10:06;12.50;99.90
25937;DHT22;13733;51.178;4.450;2023-04-25T08:12:33;12.30;99.90
25937;DHT22;13733;51.178;4.450;2023-04-25T08:14:59;12.00;99.90
25937;DHT22;13733;51.178;4.450;2023-04-25T08:17:30;11.70;99.90
25937;DHT22;13733;51.178;4.450;2023-04-25T08:19:56;11.50;99.90
25937;DHT22;13733;51.178;4.450;2023-04-25T08:22:28;11.30;99.90
25937;DHT22;13733;51.178;4.450;2023-04-25T08:25:10;11.10;99.90
25937;DHT22;13733;51.178;4.450;2023-04-25T08:27:37;10.90;99.90
25937;DHT22;13733;51.178;4.450;2023-04-25T08:30:03;10.70;99.90
25937;DHT22;13733;51.178;4.450;2023-04-25T08:32:30;10.60;99.90
25937;DHT22;13733;51.178;4.450;2023-04-25T08:35:13;10.60;99.90
25937;DHT22;13733;51.178;4.450;2023-04-25T08:37:39;10.90;99.90
25937;DHT22;13733;51.178;4.450;2023-04-25T08:40:12;11.10;99.90
25937;DHT22;13733;51.178;4.450;2023-04-25T08:42:53;11.20;99.90
25937;DHT22;13733;51.178;4.450;2023-04-25T08:45:20;11.20;99.90
25937;DHT22;13733;51.178;4.450;2023-04-25T08:47:47;11.50;99.90
25937;DHT22;13733;51.178;4.450;2023-04-25T08:50:17;11.70;99.90
25937;DHT22;13733;51.178;4.450;2023-04-25T08:52:47;11.90;99.90
25937;DHT22;13733;51.178;4.450;2023-04-25T08:55:14;12.20;99.90
25937;DHT22;13733;51.178;4.450;2023-04-25T08:57:42;12.40;99.90
25937;DHT22;13733;51.178;4.450;2023-04-25T09:00:11;12.60;99.90
25937;DHT22;13733;51.178;4.450;2023-04-25T09:02:43;12.70;99.90
25937;DHT22;13733;51.178;4.450;2023-04-25T09:05:09;12.70;99.90
25937;DHT22;13733;51.178;4.450;2023-04-25T09:07:38;12.60;99.90
25937;DHT22;13733;51.178;4.450;2023-04-25T09:10:04;12.40;99.90
25937;DHT22;13733;51.178;4.450;2023-04-25T09:12:35;12.60;99.90
25937;DHT22;13733;51.178;4.450;2023-04-25T09:17:56;12.70;99.90
25937;DHT22;13733;51.178;4.450;2023-04-25T09:20:23;12.90;99.90
25937;DHT22;13733;51.178;4.450;2023-04-25T09:23:04;13.20;99.90
25937;DHT22;13733;51.178;4.450;2023-04-25T09:25:36;13.20;99.90
25937;DHT22;13733;51.178;4.450;2023-04-25T09:28:06;13.00;99.90
25937;DHT22;13733;51.178;4.450;2023-04-25T09:30:36;13.10;99.90
25937;DHT22;13733;51.178;4.450;2023-04-25T09:33:28;13.10;99.90
25937;DHT22;13733;51.178;4.450;2023-04-25T09:35:54;13.20;99.90
25937;DHT22;13733;51.178;4.450;2023-04-25T09:38:46;13.00;99.90
25937;DHT22;13733;51.178;4.450;2023-04-25T09:41:24;13.10;99.90
25937;DHT22;13733;51.178;4.450;2023-04-25T09:43:57;13.30;99.90
25937;DHT22;13733;51.178;4.450;2023-04-25T09:46:32;13.40;96.20
25937;DHT22;13733;51.178;4.450;2023-04-25T09:48:58;13.40;95.20
25937;DHT22;13733;51.178;4.450;2023-04-25T09:51:34;13.20;94.30
25937;DHT22;13733;51.178;4.450;2023-04-25T09:54:01;12.70;94.80
25937;DHT22;13733;51.178;4.450;2023-04-25T09:56:40;12.60;95.00
25937;DHT22;13733;51.178;4.450;2023-04-25T09:59:07;12.60;95.30
25937;DHT22;13733;51.178;4.450;2023-04-25T10:01:36;12.70;96.80
25937;DHT22;13733;51.178;4.450;2023-04-25T10:04:19;12.80;97.30
25937;DHT22;13733;51.178;4.450;2023-04-25T10:06:53;12.80;97.90
25937;DHT22;13733;51.178;4.450;2023-04-25T10:09:21;12.80;97.60
25937;DHT22;13733;51.178;4.450;2023-04-25T10:11:51;12.90;97.20
25937;DHT22;13733;51.178;4.450;2023-04-25T10:14:18;13.00;97.00
25937;DHT22;13733;51.178;4.450;2023-04-25T10:16:45;13.00;96.10
25937;DHT22;13733;51.178;4.450;2023-04-25T10:19:11;13.10;96.40
25937;DHT22;13733;51.178;4.450;2023-04-25T10:21:46;13.10;96.40
25937;DHT22;13733;51.178;4.450;2023-04-25T10:24:14;13.00;96.30
25937;DHT22;13733;51.178;4.450;2023-04-25T10:26:41;13.00;96.70
25937;DHT22;13733;51.178;4.450;2023-04-25T10:29:07;12.90;97.50
25937;DHT22;13733;51.178;4.450;2023-04-25T10:31:45;12.60;98.80
25937;DHT22;13733;51.178;4.450;2023-04-25T10:34:11;12.50;99.50
25937;DHT22;13733;51.178;4.450;2023-04-25T10:36:37;12.40;99.60
25937;DHT22;13733;51.178;4.450;2023-04-25T10:39:06;12.50;98.70
25937;DHT22;13733;51.178;4.450;2023-04-25T10:41:48;12.50;98.10
25937;DHT22;13733;51.178;4.450;2023-04-25T10:44:17;12.70;96.50
25937;DHT22;13733;51.178;4.450;2023-04-25T10:46:44;12.90;96.20
25937;DHT22;13733;51.178;4.450;2023-04-25T10:49:11;13.00;95.20
25937;DHT22;13733;51.178;4.450;2023-04-25T10:54:46;13.10;94.00
25937;DHT22;13733;51.178;4.450;2023-04-25T11:03:06;15.60;91.80
25937;DHT22;13733;51.178;4.450;2023-04-25T11:05:34;16.20;82.60
25937;DHT22;13733;51.178;4.450;2023-04-25T11:08:00;16.00;76.80
25937;DHT22;13733;51.178;4.450;2023-04-25T11:10:28;15.70;79.60
25937;DHT22;13733;51.178;4.450;2023-04-25T11:12:54;16.10;79.00
25937;DHT22;13733;51.178;4.450;2023-04-25T11:15:20;16.50;75.80
25937;DHT22;13733;51.178;4.450;2023-04-25T11:17:47;16.40;69.50
25937;DHT22;13733;51.178;4.450;2023-04-25T11:20:13;16.80;70.40
25937;DHT22;13733;51.178;4.450;2023-04-25T11:22:40;16.80;68.20
25937;DHT22;13733;51.178;4.450;2023-04-25T11:25:10;16.90;66.40
25937;DHT22;13733;51.178;4.450;2023-04-25T11:27:58;17.60;68.20
25937;DHT22;13733;51.178;4.450;2023-04-25T11:30:25;17.80;62.30
25937;DHT22;13733;51.178;4.450;2023-04-25T11:32:51;18.40;61.30
25937;DHT22;13733;51.178;4.450;2023-04-25T11:35:21;19.00;60.70
25937;DHT22;13733;51.178;4.450;2023-04-25T11:37:49;18.90;51.20
25937;DHT22;13733;51.178;4.450;2023-04-25T11:40:15;18.30;53.30
25937;DHT22;13733;51.178;4.450;2023-04-25T11:42:46;18.40;51.50
25937;DHT22;13733;51.178;4.450;2023-04-25T11:45:12;19.20;52.00
25937;DHT22;13733;51.178;4.450;2023-04-25T11:47:39;18.80;50.60
25937;DHT22;13733;51.178;4.450;2023-04-25T11:50:06;18.80;50.90
25937;DHT22;13733;51.178;4.450;2023-04-25T11:52:44;19.00;49.60
25937;DHT22;13733;51.178;4.450;2023-04-25T11:55:16;19.60;49.50
25937;DHT22;13733;51.178;4.450;2023-04-25T11:57:43;20.00;48.60
25937;DHT22;13733;51.178;4.450;2023-04-25T12:00:14;20.10;50.70
25937;DHT22;13733;51.178;4.450;2023-04-25T12:02:42;19.70;52.00
25937;DHT22;13733;51.178;4.450;2023-04-25T12:05:09;18.90;53.50
25937;DHT22;13733;51.178;4.450;2023-04-25T12:07:35;18.60;53.90
25937;DHT22;13733;51.178;4.450;2023-04-25T12:10:08;18.70;53.00
25937;DHT22;13733;51.178;4.450;2023-04-25T12:12:35;18.60;51.70
25937;DHT22;13733;51.178;4.450;2023-04-25T12:15:17;18.20;52.60
25937;DHT22;13733;51.178;4.450;2023-04-25T12:17:49;18.10;52.30
25937;DHT22;13733;51.178;4.450;2023-04-25T12:20:19;18.90;51.00
25937;DHT22;13733;51.178;4.450;2023-04-25T12:22:47;18.50;50.90
25937;DHT22;13733;51.178;4.450;2023-04-25T12:25:13;18.10;51.80
25937;DHT22;13733;51.178;4.450;2023-04-25T12:28:18;18.40;52.30
25937;DHT22;13733;51.178;4.450;2023-04-25T12:33:24;18.70;49.40
25937;DHT22;13733;51.178;4.450;2023-04-25T12:35:50;19.20;49.10
25937;DHT22;13733;51.178;4.450;2023-04-25T12:38:30;19.60;48.40
25937;DHT22;13733;51.178;4.450;2023-04-25T12:40:57;20.10;46.70
25937;DHT22;13733;51.178;4.450;2023-04-25T12:43:23;21.20;46.70
25937;DHT22;13733;51.178;4.450;2023-04-25T12:45:50;22.70;42.80
25937;DHT22;13733;51.178;4.450;2023-04-25T12:48:17;23.30;40.80
25937;DHT22;13733;51.178;4.450;2023-04-25T12:50:44;23.30;41.00
25937;DHT22;13733;51.178;4.450;2023-04-25T12:53:10;22.70;41.00
25937;DHT22;13733;51.178;4.450;2023-04-25T12:55:37;20.90;42.30
25937;DHT22;13733;51.178;4.450;2023-04-25T12:58:03;19.90;44.60
25937;DHT22;13733;51.178;4.450;2023-04-25T13:00:29;19.60;46.80
25937;DHT22;13733;51.178;4.450;2023-04-25T13:02:56;19.10;48.20
25937;DHT22;13733;51.178;4.450;2023-04-25T13:05:21;18.10;50.00
25937;DHT22;13733;51.178;4.450;2023-04-25T13:07:47;17.60;53.40
25937;DHT22;13733;51.178;4.450;2023-04-25T13:10:14;18.10;53.10
25937;DHT22;13733;51.178;4.450;2023-04-25T13:12:40;18.20;52.00
25937;DHT22;13733;51.178;4.450;2023-04-25T13:15:06;18.80;51.90
25937;DHT22;13733;51.178;4.450;2023-04-25T13:17:34;19.70;47.10
25937;DHT22;13733;51.178;4.450;2023-04-25T13:20:00;19.80;47.20
25937;DHT22;13733;51.178;4.450;2023-04-25T13:22:26;20.50;46.00
25937;DHT22;13733;51.178;4.450;2023-04-25T13:24:51;21.10;42.40
25937;DHT22;13733;51.178;4.450;2023-04-25T13:27:17;21.10;42.50
25937;DHT22;13733;51.178;4.450;2023-04-25T13:29:43;22.50;41.60
25937;DHT22;13733;51.178;4.450;2023-04-25T13:32:09;23.10;39.60
25937;DHT22;13733;51.178;4.450;2023-04-25T13:34:34;23.50;39.00
25937;DHT22;13733;51.178;4.450;2023-04-25T13:37:00;23.20;39.30
25937;DHT22;13733;51.178;4.450;2023-04-25T13:39:26;21.50;40.80
25937;DHT22;13733;51.178;4.450;2023-04-25T13:41:52;20.80;42.80
25937;DHT22;13733;51.178;4.450;2023-04-25T13:44:17;21.10;43.40
25937;DHT22;13733;51.178;4.450;2023-04-25T13:46:43;21.50;43.60
25937;DHT22;13733;51.178;4.450;2023-04-25T13:49:09;21.50;42.70
25937;DHT22;13733;51.178;4.450;2023-04-25T13:51:35;22.30;41.10
25937;DHT22;13733;51.178;4.450;2023-04-25T13:54:01;22.50;40.00
25937;DHT22;13733;51.178;4.450;2023-04-25T13:56:27;22.70;39.60
25937;DHT22;13733;51.178;4.450;2023-04-25T13:58:52;23.50;38.60
25937;DHT22;13733;51.178;4.450;2023-04-25T14:01:18;24.60;36.70
25937;DHT22;13733;51.178;4.450;2023-04-25T14:03:45;24.60;35.40
25937;DHT22;13733;51.178;4.450;2023-04-25T14:06:11;24.80;36.50
25937;DHT22;13733;51.178;4.450;2023-04-25T14:08:38;24.70;35.90
25937;DHT22;13733;51.178;4.450;2023-04-25T14:11:04;23.70;33.90
25937;DHT22;13733;51.178;4.450;2023-04-25T14:13:31;23.80;36.10
25937;DHT22;13733;51.178;4.450;2023-04-25T14:15:57;23.80;35.50
25937;DHT22;13733;51.178;4.450;2023-04-25T14:18:22;24.10;34.70
25937;DHT22;13733;51.178;4.450;2023-04-25T14:20:48;23.80;33.00
25937;DHT22;13733;51.178;4.450;2023-04-25T14:23:14;24.40;34.60
25937;DHT22;13733;51.178;4.450;2023-04-25T14:25:40;24.40;33.80
25937;DHT22;13733;51.178;4.450;2023-04-25T14:28:07;24.50;33.80
25937;DHT22;13733;51.178;4.450;2023-04-25T14:30:33;24.50;33.00
25937;DHT22;13733;51.178;4.450;2023-04-25T14:32:59;24.00;32.80
25937;DHT22;13733;51.178;4.450;2023-04-25T14:35:25;23.80;34.60
25937;DHT22;13733;51.178;4.450;2023-04-25T14:37:51;24.00;35.00
25937;DHT22;13733;51.178;4.450;2023-04-25T14:40:17;24.10;34.50
25937;DHT22;13733;51.178;4.450;2023-04-25T14:42:43;24.50;34.60
25937;DHT22;13733;51.178;4.450;2023-04-25T14:45:09;25.20;33.80
25937;DHT22;13733;51.178;4.450;2023-04-25T14:47:38;25.40;33.90
25937;DHT22;13733;51.178;4.450;2023-04-25T14:50:06;25.40;34.00
25937;DHT22;13733;51.178;4.450;2023-04-25T14:52:32;25.80;32.30
25937;DHT22;13733;51.178;4.450;2023-04-25T14:54:58;25.70;30.70
25937;DHT22;13733;51.178;4.450;2023-04-25T14:57:27;25.80;30.90
25937;DHT22;13733;51.178;4.450;2023-04-25T14:59:53;26.50;32.30
25937;DHT22;13733;51.178;4.450;2023-04-25T15:02:19;26.40;30.40
25937;DHT22;13733;51.178;4.450;2023-04-25T15:04:44;26.50;31.30
25937;DHT22;13733;51.178;4.450;2023-04-25T15:07:10;26.40;30.10
25937;DHT22;13733;51.178;4.450;2023-04-25T15:09:36;25.50;30.30
25937;DHT22;13733;51.178;4.450;2023-04-25T15:12:02;25.80;31.30
25937;DHT22;13733;51.178;4.450;2023-04-25T15:14:28;25.70;30.50
25937;DHT22;13733;51.178;4.450;2023-04-25T15:16:54;26.10;31.00
25937;DHT22;13733;51.178;4.450;2023-04-25T15:19:20;26.30;30.50
25937;DHT22;13733;51.178;4.450;2023-04-25T15:21:46;26.50;29.60
25937;DHT22;13733;51.178;4.450;2023-04-25T15:24:12;26.70;29.50
25937;DHT22;13733;51.178;4.450;2023-04-25T15:26:40;26.20;29.60
25937;DHT22;13733;51.178;4.450;2023-04-25T15:29:06;25.10;29.90
25937;DHT22;13733;51.178;4.450;2023-04-25T15:31:32;24.50;31.10
25937;DHT22;13733;51.178;4.450;2023-04-25T15:33:58;23.70;32.50
25937;DHT22;13733;51.178;4.450;2023-04-25T15:36:24;23.60;32.40
25937;DHT22;13733;51.178;4.450;2023-04-25T15:38:51;23.40;32.90
25937;DHT22;13733;51.178;4.450;2023-04-25T15:41:17;23.40;33.20
25937;DHT22;13733;51.178;4.450;2023-04-25T15:43:43;24.40;33.50
25937;DHT22;13733;51.178;4.450;2023-04-25T15:46:09;25.20;31.50
25937;DHT22;13733;51.178;4.450;2023-04-25T15:48:35;24.90;31.80
25937;DHT22;13733;51.178;4.450;2023-04-25T15:51:00;25.40;30.70
25937;DHT22;13733;51.178;4.450;2023-04-25T15:53:26;25.90;30.90
25937;DHT22;13733;51.178;4.450;2023-04-25T15:55:52;26.40;29.90
25937;DHT22;13733;51.178;4.450;2023-04-25T15:58:18;26.00;29.80
25937;DHT22;13733;51.178;4.450;2023-04-25T16:00:44;25.70;28.80
25937;DHT22;13733;51.178;4.450;2023-04-25T16:03:13;25.70;29.70